createdAt,value
2019-03-28T00:00:03.689Z,4.4
2019-03-28T00:01:02.822Z,4.4
2019-03-28T00:02:02.941Z,4.4
2019-03-28T00:03:03.656Z,4.3
2019-03-28T00:04:03.855Z,4.3
2019-03-28T00:05:03.743Z,4.3
2019-03-28T00:06:03.299Z,4.3
2019-03-28T00:07:03.518Z,4.3
2019-03-28T00:08:03.454Z,4.3
2019-03-28T00:09:02.773Z,4.3
2019-03-28T00:10:03.646Z,4.3
2019-03-28T00:11:02.817Z,4.3
2019-03-28T00:12:03.547Z,4.3
2019-03-28T00:13:02.569Z,4.3
2019-03-28T00:14:03.007Z,4.4
2019-03-28T00:15:02.876Z,4.4
2019-03-28T00:16:02.776Z,4.3
2019-03-28T00:17:04.957Z,4.3
2019-03-28T00:18:04.116Z,4.3
2019-03-28T00:19:03.151Z,4.3
2019-03-28T00:20:03.771Z,4.3
2019-03-28T00:21:02.880Z,4.3
2019-03-28T00:22:06.011Z,4.3
2019-03-28T00:23:02.815Z,4.3
2019-03-28T00:24:03.716Z,4.3
2019-03-28T00:25:03.111Z,4.4
2019-03-28T00:26:03.526Z,4.3
2019-03-28T00:27:03.697Z,4.3
2019-03-28T00:28:03.638Z,4.3
2019-03-28T00:29:03.850Z,4.3
2019-03-28T00:30:03.589Z,4.3
2019-03-28T00:31:02.603Z,4.3
2019-03-28T00:32:02.953Z,4.3
2019-03-28T00:33:03.749Z,4.3
2019-03-28T00:34:03.473Z,4.3
2019-03-28T00:35:03.740Z,4.3
2019-03-28T00:36:03.650Z,4.3
2019-03-28T00:37:03.521Z,4.3
2019-03-28T00:38:03.471Z,4.3
2019-03-28T00:39:03.771Z,4.3
2019-03-28T00:40:03.018Z,4.3
2019-03-28T00:41:03.554Z,4.3
2019-03-28T00:42:03.767Z,4.3
2019-03-28T00:43:03.800Z,4.3
2019-03-28T00:44:03.576Z,4.3
2019-03-28T00:45:02.887Z,4.3
2019-03-28T00:46:02.847Z,4.3
2019-03-28T00:47:03.653Z,4.2
2019-03-28T00:48:03.436Z,4.3
2019-03-28T00:49:03.687Z,4.3
2019-03-28T00:50:03.529Z,4.3
2019-03-28T00:51:03.478Z,4.3
2019-03-28T00:52:03.508Z,4.3
2019-03-28T00:53:02.896Z,4.3
2019-03-28T00:54:03.507Z,4.3
2019-03-28T00:55:03.560Z,4.3
2019-03-28T00:56:03.443Z,4.3
2019-03-28T00:57:02.915Z,4.3
2019-03-28T00:58:02.681Z,4.3
2019-03-28T00:59:03.591Z,4.3
2019-03-28T01:00:02.769Z,4.3
2019-03-28T01:01:03.520Z,4.3
2019-03-28T01:02:03.560Z,4.3
2019-03-28T01:03:03.591Z,4.3
2019-03-28T01:04:02.836Z,4.3
2019-03-28T01:05:03.985Z,4.3
2019-03-28T01:06:02.947Z,4.3
2019-03-28T01:07:03.982Z,4.3
2019-03-28T01:08:03.714Z,4.3
2019-03-28T01:09:05.605Z,4.3
2019-03-28T01:10:03.715Z,4.3
2019-03-28T01:11:03.679Z,4.3
2019-03-28T01:12:03.591Z,4.3
2019-03-28T01:13:03.734Z,4.3
2019-03-28T01:14:03.314Z,4.2
2019-03-28T01:15:03.617Z,4.2
2019-03-28T01:16:03.268Z,4.2
2019-03-28T01:17:03.773Z,4.2
2019-03-28T01:18:03.673Z,4.2
2019-03-28T01:19:03.529Z,4.3
2019-03-28T01:20:03.636Z,4.3
2019-03-28T01:21:03.607Z,4.3
2019-03-28T01:22:03.355Z,4.3
2019-03-28T01:23:03.624Z,4.3
2019-03-28T01:24:03.386Z,4.3
2019-03-28T01:25:03.358Z,4.3
2019-03-28T01:26:03.185Z,4.3
2019-03-28T01:27:03.245Z,4.3
2019-03-28T01:28:03.424Z,4.3
2019-03-28T01:29:03.442Z,4.3
2019-03-28T01:30:03.301Z,4.3
2019-03-28T01:31:03.335Z,4.3
2019-03-28T01:32:03.307Z,4.3
2019-03-28T01:33:03.188Z,4.3
2019-03-28T01:34:03.600Z,4.3
2019-03-28T01:35:03.585Z,4.3
2019-03-28T01:36:03.411Z,4.3
2019-03-28T01:37:03.285Z,4.3
2019-03-28T01:38:03.164Z,4.3
2019-03-28T01:39:03.589Z,4.2
2019-03-28T01:40:03.617Z,4.2
2019-03-28T01:41:03.532Z,4.2
2019-03-28T01:42:03.190Z,4.3
2019-03-28T01:43:02.946Z,4.3
2019-03-28T01:44:02.851Z,4.2
2019-03-28T01:45:03.342Z,4.1
2019-03-28T01:46:03.164Z,4.2
2019-03-28T01:47:03.062Z,4.2
2019-03-28T01:48:02.975Z,4.2
2019-03-28T01:49:03.915Z,4.2
2019-03-28T01:50:03.099Z,4.2
2019-03-28T01:51:03.156Z,4.3
2019-03-28T01:52:04.600Z,4.3
2019-03-28T01:53:01.978Z,4.2
2019-03-28T01:54:03.689Z,4.2
2019-03-28T01:55:03.203Z,4.2
2019-03-28T01:56:03.390Z,4.2
2019-03-28T01:57:12.878Z,4.1
2019-03-28T01:58:03.336Z,4.1
2019-03-28T01:59:03.140Z,4.1
2019-03-28T02:00:03.415Z,4.1
2019-03-28T02:01:03.382Z,4.1
2019-03-28T02:02:02.871Z,4.1
2019-03-28T02:03:03.147Z,4.1
2019-03-28T02:04:03.098Z,4.1
2019-03-28T02:05:03.204Z,4.2
2019-03-28T02:06:02.943Z,4.1
2019-03-28T02:07:03.228Z,4.1
2019-03-28T02:08:03.119Z,4.1
2019-03-28T02:09:03.216Z,4.1
2019-03-28T02:10:03.180Z,4.1
2019-03-28T02:11:02.995Z,4.1
2019-03-28T02:12:02.926Z,4.1
2019-03-28T02:13:03.013Z,4.1
2019-03-28T02:14:03.805Z,4.1
2019-03-28T02:15:02.954Z,4.1
2019-03-28T02:16:03.028Z,4.1
2019-03-28T02:17:03.343Z,4
2019-03-28T02:18:03.532Z,4
2019-03-28T02:19:03.812Z,4.1
2019-03-28T02:20:02.891Z,4.1
2019-03-28T02:21:03.735Z,4.1
2019-03-28T02:22:03.630Z,4.1
2019-03-28T02:23:03.647Z,4.1
2019-03-28T02:24:03.538Z,4.1
2019-03-28T02:25:02.690Z,4.1
2019-03-28T02:26:03.495Z,4.1
2019-03-28T02:27:02.995Z,4
2019-03-28T02:28:03.681Z,4.1
2019-03-28T02:29:02.644Z,4.1
2019-03-28T02:30:03.146Z,4.1
2019-03-28T02:31:02.757Z,4.1
2019-03-28T02:32:02.907Z,4.1
2019-03-28T02:33:02.847Z,4.1
2019-03-28T02:34:03.041Z,4.1
2019-03-28T02:35:03.756Z,4.1
2019-03-28T02:36:02.937Z,4.1
2019-03-28T02:37:03.703Z,4.1
2019-03-28T02:38:03.576Z,4.1
2019-03-28T02:39:03.615Z,4.1
2019-03-28T02:40:03.719Z,4.1
2019-03-28T02:41:03.644Z,4
2019-03-28T02:42:03.729Z,3.9
2019-03-28T02:43:03.618Z,4
2019-03-28T02:44:03.635Z,4
2019-03-28T02:45:04.168Z,4.1
2019-03-28T02:46:03.567Z,4.1
2019-03-28T02:47:03.444Z,4
2019-03-28T02:48:03.335Z,4.1
2019-03-28T02:49:03.337Z,4.1
2019-03-28T02:50:03.529Z,4
2019-03-28T02:51:04.263Z,4
2019-03-28T02:52:03.230Z,4.1
2019-03-28T02:53:03.668Z,4.1
2019-03-28T02:54:03.101Z,4.1
2019-03-28T02:55:03.850Z,4.1
2019-03-28T02:56:03.559Z,4
2019-03-28T02:57:03.434Z,4
2019-03-28T02:58:03.239Z,4
2019-03-28T02:59:03.413Z,3.9
2019-03-28T03:00:03.445Z,3.9
2019-03-28T03:01:03.260Z,3.9
2019-03-28T03:02:03.183Z,3.9
2019-03-28T03:03:03.219Z,3.9
2019-03-28T03:04:03.383Z,3.9
2019-03-28T03:05:03.245Z,3.9
2019-03-28T03:06:03.222Z,3.9
2019-03-28T03:07:03.300Z,3.9
2019-03-28T03:08:03.305Z,4
2019-03-28T03:09:02.712Z,3.9
2019-03-28T03:10:03.328Z,3.9
2019-03-28T03:11:03.035Z,3.9
2019-03-28T03:12:03.212Z,3.9
2019-03-28T03:13:03.144Z,4
2019-03-28T03:14:02.888Z,3.9
2019-03-28T03:15:03.999Z,3.9
2019-03-28T03:16:02.835Z,3.9
2019-03-28T03:17:03.251Z,3.9
2019-03-28T03:18:03.030Z,3.9
2019-03-28T03:19:03.294Z,3.9
2019-03-28T03:20:03.440Z,3.9
2019-03-28T03:21:02.800Z,3.9
2019-03-28T03:22:03.310Z,3.9
2019-03-28T03:23:03.288Z,3.9
2019-03-28T03:24:02.786Z,3.9
2019-03-28T03:25:03.034Z,3.9
2019-03-28T03:26:03.414Z,3.9
2019-03-28T03:27:03.105Z,4
2019-03-28T03:28:03.335Z,4
2019-03-28T03:29:03.161Z,4.1
2019-03-28T03:30:03.979Z,4.1
2019-03-28T03:31:03.267Z,4.1
2019-03-28T03:32:03.343Z,4.1
2019-03-28T03:33:03.454Z,4
2019-03-28T03:34:05.838Z,4
2019-03-28T03:35:03.196Z,3.9
2019-03-28T03:36:03.132Z,4
2019-03-28T03:37:04.248Z,3.9
2019-03-28T03:38:02.697Z,3.9
2019-03-28T03:39:03.074Z,3.9
2019-03-28T03:40:02.987Z,3.9
2019-03-28T03:41:03.247Z,3.9
2019-03-28T03:42:03.031Z,4
2019-03-28T03:43:02.929Z,3.9
2019-03-28T03:44:03.108Z,3.9
2019-03-28T03:45:02.976Z,4
2019-03-28T03:46:03.037Z,4
2019-03-28T03:47:02.845Z,4
2019-03-28T03:48:03.061Z,4
2019-03-28T03:49:02.752Z,4
2019-03-28T03:50:03.089Z,4
2019-03-28T03:51:02.852Z,4.1
2019-03-28T03:52:03.097Z,4.1
2019-03-28T03:53:02.719Z,4.1
2019-03-28T03:54:03.028Z,3.9
2019-03-28T03:55:02.946Z,3.9
2019-03-28T03:56:03.107Z,3.9
2019-03-28T03:57:03.099Z,3.9
2019-03-28T03:58:18.591Z,3.9
2019-03-28T03:59:03.139Z,3.9
2019-03-28T04:00:04.022Z,3.9
2019-03-28T04:01:03.312Z,3.9
2019-03-28T04:02:03.659Z,3.9
2019-03-28T04:03:03.530Z,3.9
2019-03-28T04:04:03.472Z,3.9
2019-03-28T04:05:03.635Z,3.9
2019-03-28T04:06:03.472Z,3.9
2019-03-28T04:07:03.349Z,3.9
2019-03-28T04:08:03.483Z,4
2019-03-28T04:09:03.249Z,4
2019-03-28T04:10:03.550Z,3.9
2019-03-28T04:11:03.525Z,3.9
2019-03-28T04:12:03.447Z,3.9
2019-03-28T04:13:03.291Z,3.9
2019-03-28T04:14:03.238Z,3.9
2019-03-28T04:15:03.516Z,3.9
2019-03-28T04:16:04.248Z,3.9
2019-03-28T04:17:03.771Z,3.9
2019-03-28T04:18:03.327Z,3.9
2019-03-28T04:19:03.276Z,4
2019-03-28T04:20:03.379Z,4
2019-03-28T04:21:03.534Z,4
2019-03-28T04:22:03.108Z,3.9
2019-03-28T04:23:04.348Z,3.9
2019-03-28T04:24:03.087Z,3.9
2019-03-28T04:25:02.941Z,3.9
2019-03-28T04:26:03.239Z,3.9
2019-03-28T04:27:03.098Z,4
2019-03-28T04:28:02.976Z,3.9
2019-03-28T04:29:02.951Z,3.9
2019-03-28T04:30:02.997Z,3.9
2019-03-28T04:31:02.750Z,3.9
2019-03-28T04:32:02.850Z,3.9
2019-03-28T04:33:02.957Z,4
2019-03-28T04:34:09.647Z,4
2019-03-28T04:35:03.064Z,4
2019-03-28T04:36:02.893Z,3.9
2019-03-28T04:37:02.868Z,3.9
2019-03-28T04:38:03.209Z,3.9
2019-03-28T04:39:02.843Z,3.9
2019-03-28T04:40:02.773Z,3.9
2019-03-28T04:41:02.880Z,3.9
2019-03-28T04:42:03.432Z,3.9
2019-03-28T04:43:02.848Z,3.9
2019-03-28T04:44:03.576Z,3.9
2019-03-28T04:45:05.736Z,3.9
2019-03-28T04:46:03.402Z,3.9
2019-03-28T04:47:03.655Z,3.9
2019-03-28T04:48:03.471Z,3.9
2019-03-28T04:49:03.678Z,3.8
2019-03-28T04:50:03.540Z,3.9
2019-03-28T04:51:03.508Z,3.9
2019-03-28T04:52:03.433Z,3.9
2019-03-28T04:53:03.584Z,3.9
2019-03-28T04:54:03.827Z,3.9
2019-03-28T04:55:03.365Z,3.9
2019-03-28T04:56:03.256Z,3.9
2019-03-28T04:57:04.487Z,3.9
2019-03-28T04:58:03.676Z,3.9
2019-03-28T04:59:03.544Z,3.9
2019-03-28T05:00:03.724Z,3.9
2019-03-28T05:01:03.410Z,3.9
2019-03-28T05:02:05.467Z,3.9
2019-03-28T05:03:03.282Z,3.9
2019-03-28T05:04:03.470Z,3.9
2019-03-28T05:05:03.405Z,3.9
2019-03-28T05:06:03.617Z,3.9
2019-03-28T05:07:03.317Z,3.9
2019-03-28T05:08:03.279Z,3.9
2019-03-28T05:09:03.350Z,3.9
2019-03-28T05:10:03.371Z,3.9
2019-03-28T05:11:03.426Z,3.9
2019-03-28T05:12:03.830Z,3.9
2019-03-28T05:13:03.231Z,3.9
2019-03-28T05:14:03.313Z,3.9
2019-03-28T05:15:03.210Z,3.9
2019-03-28T05:16:03.144Z,3.9
2019-03-28T05:17:03.093Z,3.8
2019-03-28T05:18:03.313Z,3.9
2019-03-28T05:19:03.273Z,3.9
2019-03-28T05:20:03.216Z,3.9
2019-03-28T05:21:03.563Z,3.9
2019-03-28T05:22:03.385Z,3.9
2019-03-28T05:23:04.223Z,3.9
2019-03-28T05:24:02.919Z,3.9
2019-03-28T05:25:03.520Z,3.9
2019-03-28T05:26:03.437Z,3.9
2019-03-28T05:27:03.385Z,3.9
2019-03-28T05:28:02.939Z,4
2019-03-28T05:29:03.442Z,4
2019-03-28T05:30:06.809Z,4
2019-03-28T05:31:03.308Z,4.1
2019-03-28T05:32:03.187Z,4
2019-03-28T05:33:03.261Z,4.1
2019-03-28T05:34:02.837Z,4.1
2019-03-28T05:35:03.289Z,4
2019-03-28T05:36:04.735Z,4
2019-03-28T05:37:03.033Z,3.9
2019-03-28T05:38:03.183Z,4
2019-03-28T05:39:02.978Z,4.1
2019-03-28T05:40:02.980Z,4.1
2019-03-28T05:41:02.718Z,4.2
2019-03-28T05:42:03.472Z,4.2
2019-03-28T05:43:03.084Z,4.1
2019-03-28T05:44:03.184Z,4.2
2019-03-28T05:45:03.416Z,4.2
2019-03-28T05:46:02.849Z,4.3
2019-03-28T05:47:03.710Z,4.3
2019-03-28T05:48:02.774Z,4.4
2019-03-28T05:49:03.037Z,4.3
2019-03-28T05:50:03.112Z,4.4
2019-03-28T05:51:03.278Z,4.4
2019-03-28T05:52:03.006Z,4.4
2019-03-28T05:53:03.021Z,4.5
2019-03-28T05:54:02.908Z,4.5
2019-03-28T05:55:05.707Z,4.5
2019-03-28T05:56:02.790Z,4.5
2019-03-28T05:57:02.946Z,4.6
2019-03-28T05:58:02.746Z,4.6
2019-03-28T05:59:11.658Z,4.6
2019-03-28T06:00:02.941Z,4.6
2019-03-28T06:01:03.851Z,4.6
2019-03-28T06:02:02.752Z,4.6
2019-03-28T06:03:02.797Z,4.7
2019-03-28T06:04:02.813Z,4.7
2019-03-28T06:05:03.827Z,4.8
2019-03-28T06:06:03.799Z,4.8
2019-03-28T06:07:02.957Z,4.8
2019-03-28T06:08:02.825Z,4.8
2019-03-28T06:09:03.461Z,4.8
2019-03-28T06:10:02.993Z,4.8
2019-03-28T06:11:02.752Z,4.9
2019-03-28T06:12:03.038Z,4.9
2019-03-28T06:13:02.826Z,4.9
2019-03-28T06:14:03.709Z,5
2019-03-28T06:15:03.698Z,5
2019-03-28T06:16:02.568Z,5.1
2019-03-28T06:17:03.305Z,5.1
2019-03-28T06:18:02.770Z,5.1
2019-03-28T06:19:03.677Z,5.1
2019-03-28T06:20:02.891Z,5.2
2019-03-28T06:21:02.822Z,5.2
2019-03-28T06:22:03.418Z,5.3
2019-03-28T06:23:03.474Z,5.3
2019-03-28T06:24:02.981Z,5.3
2019-03-28T06:25:06.432Z,5.3
2019-03-28T06:26:02.896Z,5.4
2019-03-28T06:27:03.485Z,5.4
2019-03-28T06:28:03.065Z,5.4
2019-03-28T06:29:03.342Z,5.4
2019-03-28T06:30:03.331Z,5.4
2019-03-28T06:31:03.589Z,5.3
2019-03-28T06:32:03.521Z,5.4
2019-03-28T06:33:03.362Z,5.4
2019-03-28T06:34:03.535Z,5.4
2019-03-28T06:35:03.167Z,5.4
2019-03-28T06:36:03.323Z,5.5
2019-03-28T06:37:03.378Z,5.6
2019-03-28T06:38:03.118Z,5.6
2019-03-28T06:39:03.405Z,5.7
2019-03-28T06:40:03.348Z,5.8
2019-03-28T06:41:03.543Z,5.9
2019-03-28T06:42:03.431Z,6
2019-03-28T06:43:03.204Z,6
2019-03-28T06:44:03.396Z,6.1
2019-03-28T06:45:04.242Z,6.2
2019-03-28T06:46:03.210Z,6.2
2019-03-28T06:47:03.170Z,6.2
2019-03-28T06:48:03.031Z,6.2
2019-03-28T06:49:03.114Z,6.3
2019-03-28T06:50:03.081Z,6.3
2019-03-28T06:51:03.358Z,6.3
2019-03-28T06:52:03.289Z,6.3
2019-03-28T06:53:02.997Z,6.3
2019-03-28T06:54:03.402Z,6.4
2019-03-28T06:55:03.164Z,6.5
2019-03-28T06:56:01.960Z,6.5
2019-03-28T06:57:03.225Z,6.5
2019-03-28T06:58:03.064Z,6.5
2019-03-28T06:59:03.012Z,6.6
2019-03-28T07:00:02.923Z,6.7
2019-03-28T07:01:02.943Z,6.7
2019-03-28T07:02:03.004Z,6.8
2019-03-28T07:03:03.078Z,6.8
2019-03-28T07:04:04.707Z,6.8
2019-03-28T07:05:02.834Z,6.8
2019-03-28T07:06:02.970Z,6.8
2019-03-28T07:07:02.891Z,6.9
2019-03-28T07:08:02.745Z,6.9
2019-03-28T07:09:02.606Z,6.9
2019-03-28T07:10:03.964Z,6.9
2019-03-28T07:11:02.948Z,7
2019-03-28T07:12:02.793Z,7.1
2019-03-28T07:13:03.167Z,7.3
2019-03-28T07:14:03.252Z,7.5
2019-03-28T07:15:03.579Z,7.5
2019-03-28T07:16:02.943Z,7.5
2019-03-28T07:17:03.911Z,7.6
2019-03-28T07:18:03.075Z,7.6
2019-03-28T07:19:03.813Z,7.6
2019-03-28T07:20:03.031Z,7.7
2019-03-28T07:21:02.840Z,7.8
2019-03-28T07:22:03.185Z,8
2019-03-28T07:23:02.897Z,8.1
2019-03-28T07:24:03.005Z,8.3
2019-03-28T07:25:03.255Z,8.3
2019-03-28T07:26:03.777Z,8.2
2019-03-28T07:27:02.811Z,8.4
2019-03-28T07:28:06.762Z,8.6
2019-03-28T07:29:02.984Z,8.6
2019-03-28T07:30:03.680Z,8.6
2019-03-28T07:31:02.684Z,8.8
2019-03-28T07:32:03.073Z,8.9
2019-03-28T07:33:03.145Z,8.6
2019-03-28T07:34:03.677Z,8.6
2019-03-28T07:35:02.808Z,8.7
2019-03-28T07:36:02.693Z,8.6
2019-03-28T07:37:02.885Z,8.4
2019-03-28T07:38:03.764Z,8.3
2019-03-28T07:39:03.682Z,8.3
2019-03-28T07:40:03.054Z,8.3
2019-03-28T07:41:03.842Z,8.5
2019-03-28T07:42:03.050Z,8.7
2019-03-28T07:43:03.677Z,8.5
2019-03-28T07:44:02.992Z,8.6
2019-03-28T07:45:03.772Z,8.7
2019-03-28T07:46:03.621Z,8.5
2019-03-28T07:47:02.712Z,8.3
2019-03-28T07:48:03.511Z,8.4
2019-03-28T07:49:03.344Z,8.4
2019-03-28T07:50:02.888Z,8.4
2019-03-28T07:51:02.760Z,8.4
2019-03-28T07:52:03.790Z,8.6
2019-03-28T07:53:03.632Z,8.6
2019-03-28T07:54:03.043Z,8.7
2019-03-28T07:55:03.423Z,8.7
2019-03-28T07:56:03.558Z,9
2019-03-28T07:57:03.661Z,9.1
2019-03-28T07:58:03.332Z,9.1
2019-03-28T07:59:03.549Z,9.4
2019-03-28T08:00:05.551Z,9.3
2019-03-28T08:01:02.911Z,9.5
2019-03-28T08:02:03.878Z,9.5
2019-03-28T08:03:03.790Z,9.6
2019-03-28T08:04:03.735Z,9.6
2019-03-28T08:05:03.714Z,9.5
2019-03-28T08:06:03.533Z,9.5
2019-03-28T08:07:02.968Z,9.2
2019-03-28T08:08:03.714Z,9.1
2019-03-28T08:09:03.659Z,9.3
2019-03-28T08:10:03.750Z,9.3
2019-03-28T08:11:02.755Z,9.6
2019-03-28T08:12:02.992Z,9.2
2019-03-28T08:13:03.417Z,9.4
2019-03-28T08:14:03.784Z,9.9
2019-03-28T08:15:03.427Z,9.8
2019-03-28T08:16:03.552Z,9.4
2019-03-28T08:17:03.382Z,9.4
2019-03-28T08:18:03.779Z,9.5
2019-03-28T08:19:03.197Z,9.9
2019-03-28T08:20:03.604Z,10
2019-03-28T08:21:03.293Z,10.3
2019-03-28T08:22:03.539Z,10.6
2019-03-28T08:23:03.363Z,10.7
2019-03-28T08:24:03.490Z,10.8
2019-03-28T08:25:03.354Z,10.8
2019-03-28T08:26:03.308Z,10.3
2019-03-28T08:27:03.300Z,10.3
2019-03-28T08:28:02.871Z,10.6
2019-03-28T08:29:03.480Z,10.8
2019-03-28T08:30:19.617Z,10.9
2019-03-28T08:31:03.179Z,11
2019-03-28T08:32:03.396Z,11
2019-03-28T08:33:04.622Z,11
2019-03-28T08:34:02.661Z,11.1
2019-03-28T08:35:03.845Z,11.6
2019-03-28T08:36:03.355Z,11.9
2019-03-28T08:37:03.631Z,11.9
2019-03-28T08:38:03.506Z,11.8
2019-03-28T08:39:03.525Z,11.4
2019-03-28T08:40:03.359Z,11.1
2019-03-28T08:41:07.440Z,11.1
2019-03-28T08:42:03.806Z,11.4
2019-03-28T08:43:03.562Z,11.4
2019-03-28T08:44:03.387Z,10.8
2019-03-28T08:45:03.496Z,10.3
2019-03-28T08:46:03.675Z,10
2019-03-28T08:47:06.540Z,10.3
2019-03-28T08:48:03.577Z,10.3
2019-03-28T08:49:02.872Z,10.4
2019-03-28T08:50:04.141Z,10.6
2019-03-28T08:51:02.925Z,10.5
2019-03-28T08:52:03.829Z,10.8
2019-03-28T08:53:03.590Z,10.9
2019-03-28T08:54:03.661Z,10.9
2019-03-28T08:55:03.844Z,10.5
2019-03-28T08:56:03.679Z,10.4
2019-03-28T08:57:03.356Z,10.4
2019-03-28T08:58:03.397Z,10.3
2019-03-28T08:59:03.397Z,10.3
2019-03-28T09:00:03.408Z,10.6
2019-03-28T09:01:03.428Z,10.5
2019-03-28T09:02:35.612Z,10.4
2019-03-28T09:03:03.277Z,10.4
2019-03-28T09:04:03.133Z,10.3
2019-03-28T09:05:03.179Z,10.7
2019-03-28T09:06:03.206Z,10.6
2019-03-28T09:07:03.160Z,10.5
2019-03-28T09:08:03.010Z,10.4
2019-03-28T09:09:03.217Z,10.4
2019-03-28T09:10:03.072Z,10.3
2019-03-28T09:11:03.839Z,10.2
2019-03-28T09:12:03.126Z,10.1
2019-03-28T09:13:35.274Z,10.6
2019-03-28T09:14:03.081Z,11.1
2019-03-28T09:16:03.031Z,10.8
2019-03-28T09:16:08.338Z,11
2019-03-28T09:17:03.473Z,10.5
2019-03-28T09:18:03.331Z,11.1
2019-03-28T09:19:03.201Z,11.1
2019-03-28T09:20:03.445Z,10.9
2019-03-28T09:21:03.250Z,10.8
2019-03-28T09:22:03.298Z,10.9
2019-03-28T09:23:02.835Z,11.3
2019-03-28T09:24:03.131Z,11
2019-03-28T09:25:04.540Z,10.8
2019-03-28T09:26:04.985Z,11
2019-03-28T09:27:03.299Z,11
2019-03-28T09:28:03.169Z,10.9
2019-03-28T09:29:03.562Z,11.1
2019-03-28T09:30:03.495Z,11.1
2019-03-28T09:31:03.397Z,11.4
2019-03-28T09:32:03.628Z,11.6
2019-03-28T09:33:03.458Z,11.6
2019-03-28T09:34:03.572Z,11.7
2019-03-28T09:35:03.187Z,11.3
2019-03-28T09:36:03.336Z,11.4
2019-03-28T09:37:03.542Z,11.9
2019-03-28T09:38:03.291Z,11.9
2019-03-28T09:39:03.250Z,11.6
2019-03-28T09:40:03.170Z,11.3
2019-03-28T09:41:03.363Z,11.8
2019-03-28T09:42:03.216Z,12.4
2019-03-28T09:43:03.358Z,12.2
2019-03-28T09:44:03.279Z,11.9
2019-03-28T09:45:03.279Z,12.2
2019-03-28T09:46:03.305Z,12.6
2019-03-28T09:47:03.448Z,12.3
2019-03-28T09:48:03.419Z,11.5
2019-03-28T09:49:03.226Z,11.4
2019-03-28T09:50:03.343Z,11.4
2019-03-28T09:51:03.011Z,11.4
2019-03-28T09:52:03.105Z,11.9
2019-03-28T09:53:03.132Z,11.9
2019-03-28T09:54:02.815Z,12.1
2019-03-28T09:55:02.935Z,12
2019-03-28T09:56:03.338Z,11.8
2019-03-28T09:57:03.188Z,11.7
2019-03-28T09:58:03.154Z,11.8
2019-03-28T09:59:03.136Z,12
2019-03-28T10:00:03.525Z,12.3
2019-03-28T10:01:03.637Z,12.3
2019-03-28T10:02:03.286Z,11.6
2019-03-28T10:03:02.955Z,11.6
2019-03-28T10:04:06.767Z,11.4
2019-03-28T10:05:03.478Z,11.6
2019-03-28T10:06:03.047Z,11.9
2019-03-28T10:07:03.593Z,11.8
2019-03-28T10:08:03.267Z,11.3
2019-03-28T10:09:03.440Z,11.1
2019-03-28T10:10:05.446Z,10.9
2019-03-28T10:11:03.547Z,11.1
2019-03-28T10:12:03.474Z,11.1
2019-03-28T10:13:03.455Z,11.3
2019-03-28T10:14:03.163Z,11.2
2019-03-28T10:15:03.686Z,11.3
2019-03-28T10:16:02.996Z,11.2
2019-03-28T10:17:03.102Z,11.5
2019-03-28T10:18:03.216Z,11.1
2019-03-28T10:19:02.993Z,11.1
2019-03-28T10:20:05.805Z,11.4
2019-03-28T10:21:03.068Z,11.4
2019-03-28T10:22:03.021Z,11.3
2019-03-28T10:23:03.123Z,11.2
2019-03-28T10:24:03.195Z,11.3
2019-03-28T10:25:03.121Z,11.4
2019-03-28T10:26:02.961Z,11.4
2019-03-28T10:27:02.832Z,11.5
2019-03-28T10:28:03.121Z,11.6
2019-03-28T10:29:02.954Z,11.4
2019-03-28T10:30:02.920Z,11.1
2019-03-28T10:31:17.150Z,11.1
2019-03-28T10:32:03.912Z,11.1
2019-03-28T10:33:03.741Z,11.9
2019-03-28T10:34:03.257Z,11.9
2019-03-28T10:35:07.380Z,11.8
2019-03-28T10:36:03.743Z,11.9
2019-03-28T10:37:03.741Z,12.1
2019-03-28T10:38:03.329Z,12.1
2019-03-28T10:39:03.675Z,11.9
2019-03-28T10:40:03.691Z,12
2019-03-28T10:41:03.327Z,11.9
2019-03-28T10:42:03.436Z,12.3
2019-03-28T10:43:03.523Z,13
2019-03-28T10:44:03.573Z,12.7
2019-03-28T10:45:03.392Z,12.8
2019-03-28T10:46:03.655Z,12.9
2019-03-28T10:47:05.255Z,13.4
2019-03-28T10:48:03.625Z,13.4
2019-03-28T10:49:03.293Z,12.8
2019-03-28T10:50:04.594Z,12.3
2019-03-28T10:51:03.285Z,12.1
2019-03-28T10:52:04.326Z,12
2019-03-28T10:53:03.313Z,12
2019-03-28T10:54:03.148Z,11.8
2019-03-28T10:55:03.177Z,11.5
2019-03-28T10:56:02.950Z,11.7
2019-03-28T10:57:30.059Z,11.8
2019-03-28T10:58:19.703Z,12
2019-03-28T10:59:03.236Z,12.1
2019-03-28T11:00:02.957Z,12
2019-03-28T11:01:03.076Z,12.6
2019-03-28T11:02:03.034Z,12.6
2019-03-28T11:03:03.609Z,12.4
2019-03-28T11:04:03.104Z,12.5
2019-03-28T11:05:03.192Z,12.7
2019-03-28T11:06:03.185Z,12.8
2019-03-28T11:07:03.191Z,13.1
2019-03-28T11:08:03.016Z,12.9
2019-03-28T11:09:03.219Z,12.7
2019-03-28T11:10:03.263Z,12.6
2019-03-28T11:11:02.843Z,12.6
2019-03-28T11:12:03.427Z,12.6
2019-03-28T11:13:03.239Z,13.1
2019-03-28T11:14:02.997Z,13.2
2019-03-28T11:15:02.897Z,13.9
2019-03-28T11:16:03.340Z,14.2
2019-03-28T11:17:03.168Z,14.4
2019-03-28T11:18:03.214Z,14.3
2019-03-28T11:19:02.882Z,14.6
2019-03-28T11:20:03.243Z,14.4
2019-03-28T11:21:03.394Z,13.8
2019-03-28T11:22:02.899Z,14.2
2019-03-28T11:23:03.260Z,14.2
2019-03-28T11:24:02.948Z,14.2
2019-03-28T11:25:03.027Z,13.1
2019-03-28T11:26:02.843Z,12.8
2019-03-28T11:27:03.127Z,12.4
2019-03-28T11:28:03.798Z,12.4
2019-03-28T11:29:03.751Z,12.2
2019-03-28T11:30:02.926Z,12.8
2019-03-28T11:31:03.024Z,12.4
2019-03-28T11:32:02.732Z,13.1
2019-03-28T11:33:06.866Z,13.4
2019-03-28T11:34:02.909Z,12.8
2019-03-28T11:35:03.888Z,13.1
2019-03-28T11:36:02.916Z,13.4
2019-03-28T11:37:03.069Z,13.4
2019-03-28T11:38:03.378Z,13.7
2019-03-28T11:39:03.653Z,14.1
2019-03-28T11:40:03.723Z,14.1
2019-03-28T11:41:03.598Z,13.9
2019-03-28T11:42:03.550Z,14
2019-03-28T11:43:03.596Z,13.8
2019-03-28T11:44:03.330Z,13.5
2019-03-28T11:45:03.578Z,13.4
2019-03-28T11:46:03.323Z,13.2
2019-03-28T11:47:03.460Z,13.3
2019-03-28T11:48:03.700Z,12.9
2019-03-28T11:49:03.488Z,12.6
2019-03-28T11:50:03.776Z,12.6
2019-03-28T11:51:03.396Z,12.9
2019-03-28T11:52:03.226Z,12.9
2019-03-28T11:53:03.267Z,12.9
2019-03-28T11:54:03.235Z,12.9
2019-03-28T11:55:03.379Z,13.1
2019-03-28T11:56:03.219Z,13
2019-03-28T11:57:03.141Z,12.6
2019-03-28T11:58:03.119Z,13.2
2019-03-28T11:59:06.290Z,13.4
2019-03-28T12:00:03.544Z,13.2
2019-03-28T12:01:03.393Z,13.4
2019-03-28T12:02:20.843Z,13.8
2019-03-28T12:03:03.456Z,13.8
2019-03-28T12:04:03.363Z,14
2019-03-28T12:05:03.575Z,14.1
2019-03-28T12:06:03.388Z,14.1
2019-03-28T12:07:03.206Z,13.9
2019-03-28T12:08:03.100Z,14.1
2019-03-28T12:09:03.478Z,13.9
2019-03-28T12:10:03.190Z,14
2019-03-28T12:11:03.485Z,14.2
2019-03-28T12:12:03.493Z,14.2
2019-03-28T12:13:02.998Z,14.1
2019-03-28T12:14:03.360Z,13.9
2019-03-28T12:15:03.393Z,13.9
2019-03-28T12:16:03.398Z,13.5
2019-03-28T12:17:03.171Z,12.9
2019-03-28T12:18:03.227Z,12.8
2019-03-28T12:19:03.009Z,12.9
2019-03-28T12:20:03.020Z,12.8
2019-03-28T12:21:02.842Z,12.9
2019-03-28T12:22:02.980Z,13.4
2019-03-28T12:23:03.161Z,13.4
2019-03-28T12:24:02.955Z,12.9
2019-03-28T12:25:03.100Z,13.2
2019-03-28T12:26:03.149Z,13.2
2019-03-28T12:27:03.819Z,13.2
2019-03-28T12:28:02.707Z,13.3
2019-03-28T12:29:06.142Z,13.4
2019-03-28T12:30:03.484Z,13.3
2019-03-28T12:31:03.798Z,12.9
2019-03-28T12:32:14.747Z,12.8
2019-03-28T12:33:02.833Z,12.9
2019-03-28T12:34:03.448Z,12.6
2019-03-28T12:35:03.732Z,12.4
2019-03-28T12:36:03.716Z,12.5
2019-03-28T12:37:03.566Z,12.5
2019-03-28T12:38:03.322Z,12.4
2019-03-28T12:39:03.776Z,12.4
2019-03-28T12:40:03.666Z,12.5
2019-03-28T12:41:03.463Z,12.3
2019-03-28T12:42:03.368Z,12.5
2019-03-28T12:43:03.337Z,12.5
2019-03-28T12:44:03.169Z,12.4
2019-03-28T12:45:03.280Z,12.4
2019-03-28T12:46:03.045Z,12.4
2019-03-28T12:47:03.421Z,12.3
2019-03-28T12:48:03.032Z,12.3
2019-03-28T12:49:03.078Z,12.5
2019-03-28T12:50:03.534Z,12.6
2019-03-28T12:51:03.083Z,12.5
2019-03-28T12:52:03.299Z,12.8
2019-03-28T12:53:03.099Z,12.5
2019-03-28T12:54:03.270Z,12.7
2019-03-28T12:55:02.915Z,12.6
2019-03-28T12:56:03.240Z,12.4
2019-03-28T12:57:03.144Z,12.8
2019-03-28T12:58:03.685Z,12.8
2019-03-28T12:59:03.299Z,13.1
2019-03-28T13:00:03.128Z,12.9
2019-03-28T13:01:03.768Z,12.8
2019-03-28T13:02:03.058Z,12.7
2019-03-28T13:03:03.276Z,12.6
2019-03-28T13:04:02.993Z,12.5
2019-03-28T13:05:03.226Z,12.4
2019-03-28T13:06:02.907Z,12.6
2019-03-28T13:07:03.211Z,12.5
2019-03-28T13:08:02.894Z,12.3
2019-03-28T13:09:02.934Z,12.1
2019-03-28T13:10:03.133Z,12.1
2019-03-28T13:11:02.965Z,12.1
2019-03-28T13:12:03.851Z,12.2
2019-03-28T13:13:04.186Z,12.1
2019-03-28T13:14:03.108Z,11.9
2019-03-28T13:15:03.038Z,11.9
2019-03-28T13:16:03.228Z,11.9
2019-03-28T13:17:02.931Z,11.6
2019-03-28T13:18:03.017Z,11.6
2019-03-28T13:19:03.008Z,11.7
2019-03-28T13:20:03.145Z,11.6
2019-03-28T13:21:14.382Z,11.7
2019-03-28T13:22:03.029Z,11.6
2019-03-28T13:23:02.961Z,11.4
2019-03-28T13:24:03.764Z,11.5
2019-03-28T13:25:03.209Z,11.6
2019-03-28T13:26:03.381Z,11.8
2019-03-28T13:27:03.183Z,11.7
2019-03-28T13:28:03.130Z,11.7
2019-03-28T13:29:03.262Z,11.8
2019-03-28T13:30:03.129Z,11.8
2019-03-28T13:31:03.184Z,11.9
2019-03-28T13:32:03.053Z,11.8
2019-03-28T13:33:03.226Z,11.9
2019-03-28T13:34:03.069Z,12
2019-03-28T13:35:03.328Z,12.1
2019-03-28T13:36:03.003Z,11.9
2019-03-28T13:37:02.978Z,11.9
2019-03-28T13:38:03.219Z,11.9
2019-03-28T13:39:03.538Z,12